createdAt,value
2019-03-15T00:01:08.985Z,4.04
2019-03-15T00:06:17.873Z,4.08
2019-03-15T00:11:26.905Z,3.90
2019-03-15T00:16:35.772Z,4.34
2019-03-15T00:21:44.771Z,3.92
2019-03-15T00:26:53.670Z,3.73
2019-03-15T00:32:02.591Z,3.66
2019-03-15T00:37:11.483Z,3.57
2019-03-15T00:42:20.430Z,3.88
2019-03-15T00:47:29.296Z,3.65
2019-03-15T00:52:38.170Z,3.96
2019-03-15T00:57:47.055Z,3.77
2019-03-15T01:02:55.939Z,3.50
2019-03-15T01:08:04.853Z,3.67
2019-03-15T01:13:13.795Z,3.92
2019-03-15T01:18:22.733Z,3.54
2019-03-15T01:23:31.589Z,3.60
2019-03-15T01:28:40.495Z,3.98
2019-03-15T01:33:49.348Z,3.64
2019-03-15T01:38:58.235Z,3.40
2019-03-15T01:44:07.088Z,3.96
2019-03-15T01:49:15.981Z,3.65
2019-03-15T01:54:24.841Z,4.55
2019-03-15T01:59:33.740Z,3.70
2019-03-15T02:04:42.596Z,3.90
2019-03-15T02:09:51.499Z,3.17
2019-03-15T02:15:00.375Z,3.46
2019-03-15T02:20:09.332Z,3.68
2019-03-15T02:25:18.239Z,3.30
2019-03-15T02:30:27.209Z,3.59
2019-03-15T02:35:36.096Z,3.77
2019-03-15T02:40:44.963Z,3.91
2019-03-15T02:45:53.869Z,4.50
2019-03-15T02:51:02.792Z,4.62
2019-03-15T02:56:11.643Z,4.37
2019-03-15T03:01:20.521Z,5.40
2019-03-15T03:06:29.437Z,5.97
2019-03-15T03:11:38.312Z,4.76
2019-03-15T03:16:47.353Z,5.12
2019-03-15T03:21:56.179Z,4.77
2019-03-15T03:27:05.151Z,4.84
2019-03-15T03:32:14.499Z,4.52
2019-03-15T03:37:22.491Z,4.86
2019-03-15T03:42:31.386Z,4.56
2019-03-15T03:47:40.271Z,4.88
2019-03-15T03:52:49.131Z,5.48
2019-03-15T03:57:58.112Z,4.54
2019-03-15T04:03:06.920Z,5.09
2019-03-15T04:08:15.935Z,5.12
2019-03-15T04:13:24.712Z,4.44
2019-03-15T04:18:33.616Z,5.26
2019-03-15T04:23:42.483Z,4.95
2019-03-15T04:28:51.344Z,4.90
2019-03-15T04:34:03.893Z,5.38
2019-03-15T04:39:02.762Z,5.09
2019-03-15T04:44:11.616Z,5.28
2019-03-15T04:49:20.535Z,4.57
2019-03-15T04:54:29.390Z,4.84
2019-03-15T04:59:38.288Z,4.38
2019-03-15T05:04:47.172Z,4.45
2019-03-15T05:09:56.056Z,4.35
2019-03-15T05:15:04.930Z,4.17
2019-03-15T05:20:13.819Z,3.70
2019-03-15T05:25:22.698Z,3.54
2019-03-15T05:30:31.560Z,3.96
2019-03-15T05:35:40.406Z,4.24
2019-03-15T05:40:49.295Z,3.91
2019-03-15T05:45:58.182Z,3.92
2019-03-15T05:51:07.134Z,4.30
2019-03-15T05:56:16.014Z,4.23
2019-03-15T06:01:24.896Z,4.91
2019-03-15T06:06:33.740Z,4.15
2019-03-15T06:11:42.651Z,4.19
2019-03-15T06:16:51.539Z,3.88
2019-03-15T06:22:00.411Z,5.00
2019-03-15T06:27:09.299Z,3.91
2019-03-15T06:32:18.160Z,3.86
2019-03-15T06:37:27.031Z,3.61
2019-03-15T06:42:35.988Z,3.55
2019-03-15T06:47:44.874Z,3.64
2019-03-15T06:52:53.815Z,3.33
2019-03-15T06:58:02.668Z,3.00
2019-03-15T07:03:11.609Z,3.31
2019-03-15T07:08:20.480Z,3.67
2019-03-15T07:13:29.394Z,3.04
2019-03-15T07:18:38.251Z,3.19
2019-03-15T07:23:47.216Z,2.85
2019-03-15T07:28:56.105Z,2.67
2019-03-15T07:34:05.084Z,3.02
2019-03-15T07:39:13.975Z,2.79
2019-03-15T07:44:22.868Z,2.64
2019-03-15T07:49:31.776Z,2.62
2019-03-15T07:54:40.663Z,2.46
2019-03-15T07:59:49.561Z,2.45
2019-03-15T08:04:58.523Z,2.04
2019-03-15T08:10:07.425Z,2.02
2019-03-15T08:15:16.339Z,2.11
2019-03-15T08:20:25.217Z,2.31
2019-03-15T08:25:34.111Z,2.35
2019-03-15T08:30:42.982Z,2.74
2019-03-15T08:35:51.879Z,2.78
2019-03-15T08:41:00.740Z,3.00
2019-03-15T08:46:09.683Z,3.18
2019-03-15T08:51:18.567Z,3.65
2019-03-15T08:56:27.443Z,3.60
2019-03-15T09:01:36.335Z,3.80
2019-03-15T09:06:45.279Z,4.27
2019-03-15T09:11:54.140Z,3.75
2019-03-15T09:17:03.116Z,4.06
2019-03-15T09:22:12.023Z,4.58
2019-03-15T09:27:20.939Z,4.68
2019-03-15T09:32:29.792Z,5.05
2019-03-15T09:37:38.663Z,5.15
2019-03-15T09:42:47.576Z,4.99
2019-03-15T09:47:56.460Z,4.99
2019-03-15T09:53:06.129Z,5.22
2019-03-15T09:58:13.724Z,5.03
2019-03-15T10:03:22.767Z,4.73
2019-03-15T10:08:31.523Z,5.29
2019-03-15T10:13:40.415Z,4.77
2019-03-15T10:18:50.641Z,4.83
2019-03-15T10:23:57.715Z,4.96
2019-03-15T10:29:15.116Z,4.77
2019-03-15T10:34:14.977Z,4.77
2019-03-15T10:39:23.858Z,4.71
2019-03-15T10:44:32.747Z,4.58
2019-03-15T10:49:41.596Z,4.86
2019-03-15T10:54:50.452Z,4.85
2019-03-15T10:59:59.328Z,4.76
2019-03-15T11:05:08.271Z,4.47
2019-03-15T11:10:17.163Z,5.22
2019-03-15T11:15:26.100Z,4.34
2019-03-15T11:20:34.973Z,4.67
2019-03-15T11:25:43.875Z,4.27
2019-03-15T11:30:52.751Z,4.79
2019-03-15T11:36:01.671Z,4.52
2019-03-15T11:41:10.520Z,4.14
2019-03-15T11:46:19.407Z,4.30
2019-03-15T11:51:28.305Z,4.30
2019-03-15T11:56:37.207Z,4.31
2019-03-15T12:01:46.099Z,4.26
2019-03-15T12:06:55.011Z,4.05
2019-03-15T12:12:03.885Z,4.33
2019-03-15T12:17:12.784Z,3.60
2019-03-15T12:22:21.659Z,4.18
2019-03-15T12:27:30.559Z,4.16
2019-03-15T12:32:39.709Z,4.04
2019-03-15T12:37:48.463Z,4.39
2019-03-15T12:42:57.377Z,4.51
2019-03-15T12:48:06.244Z,4.11
2019-03-15T12:53:15.168Z,3.70
2019-03-15T12:58:24.055Z,4.14
2019-03-15T13:03:33.008Z,3.76
2019-03-15T13:08:41.920Z,4.26
2019-03-15T13:13:51.108Z,4.31
2019-03-15T13:18:59.160Z,4.89
2019-03-15T13:24:08.023Z,4.17
2019-03-15T13:29:16.931Z,4.14
2019-03-15T13:34:25.801Z,4.93
2019-03-15T13:39:34.711Z,4.24
2019-03-15T13:44:43.592Z,4.37
2019-03-15T13:49:52.516Z,4.12
2019-03-15T13:55:01.380Z,4.04
2019-03-15T14:00:10.260Z,4.09
2019-03-15T14:05:19.142Z,4.26
2019-03-15T14:10:28.039Z,4.24
2019-03-15T14:15:36.940Z,4.03
2019-03-15T14:20:45.903Z,4.05
2019-03-15T14:25:54.858Z,4.60
2019-03-15T14:31:03.640Z,4.53
2019-03-15T14:36:12.507Z,4.69
2019-03-15T14:41:21.426Z,4.45
2019-03-15T14:46:30.319Z,4.04
2019-03-15T14:51:39.255Z,4.44
2019-03-15T14:56:48.145Z,4.15
2019-03-15T15:01:57.080Z,4.92
2019-03-15T15:07:05.979Z,4.14
2019-03-15T15:12:14.855Z,4.40
2019-03-15T15:17:23.787Z,4.67
2019-03-15T15:22:32.726Z,3.91
2019-03-15T15:27:41.628Z,4.13
2019-03-15T15:32:50.480Z,4.25
2019-03-15T15:37:59.391Z,4.01
2019-03-15T15:43:08.244Z,4.26
2019-03-15T15:48:17.175Z,3.81
2019-03-15T15:53:26.068Z,3.51
2019-03-15T15:58:35.027Z,3.74
2019-03-15T16:03:43.904Z,3.54
2019-03-15T16:08:52.768Z,3.56
2019-03-15T16:14:01.611Z,3.39
2019-03-15T16:19:10.588Z,3.43
2019-03-15T16:24:19.487Z,3.31
2019-03-15T16:29:28.423Z,3.19
2019-03-15T16:34:37.289Z,3.66
2019-03-15T16:39:46.241Z,3.32
2019-03-15T16:44:55.095Z,2.99
2019-03-15T16:50:04.004Z,3.34
2019-03-15T16:55:12.877Z,3.46
2019-03-15T17:00:21.761Z,3.45
2019-03-15T17:05:30.621Z,3.66
2019-03-15T17:10:39.567Z,3.08
2019-03-15T17:15:48.446Z,3.28
2019-03-15T17:20:57.400Z,3.37
2019-03-15T17:26:06.308Z,4.83
2019-03-15T17:31:15.235Z,5.62
2019-03-15T17:36:24.116Z,4.67
2019-03-15T17:41:33.011Z,4.01
2019-03-15T17:46:41.869Z,3.98
2019-03-15T17:51:50.728Z,4.00
2019-03-15T17:56:59.693Z,3.87
2019-03-15T18:02:08.574Z,3.50
2019-03-15T18:07:17.495Z,3.61
2019-03-15T18:12:26.392Z,3.48
2019-03-15T18:17:35.288Z,3.50
2019-03-15T18:22:44.161Z,3.36
2019-03-15T18:27:53.020Z,3.33
2019-03-15T18:33:01.884Z,3.34
2019-03-15T18:38:10.762Z,3.45
2019-03-15T18:43:19.690Z,3.21
2019-03-15T18:48:28.565Z,3.10
2019-03-15T18:53:37.440Z,3.19
2019-03-15T18:58:46.439Z,3.62
2019-03-15T19:03:55.278Z,3.22
2019-03-15T19:09:04.177Z,3.18
2019-03-15T19:14:13.040Z,3.47
2019-03-15T19:19:21.991Z,3.37
2019-03-15T19:24:30.845Z,3.29
2019-03-15T19:29:52.761Z,3.95
2019-03-15T19:34:48.104Z,3.08
2019-03-15T19:39:57.043Z,3.04
2019-03-15T19:45:05.948Z,2.82
2019-03-15T19:50:14.871Z,3.50
2019-03-15T19:55:23.769Z,3.02
2019-03-15T20:00:32.686Z,3.26
2019-03-15T20:05:41.615Z,3.03
2019-03-15T20:10:50.522Z,2.98
2019-03-15T20:15:59.403Z,2.89
2019-03-15T20:21:08.341Z,2.61
2019-03-15T20:26:17.229Z,2.73
2019-03-15T20:31:26.147Z,2.67
2019-03-15T20:36:35.007Z,2.66
2019-03-15T20:41:43.913Z,2.84
2019-03-15T20:46:52.757Z,2.53
2019-03-15T20:52:01.672Z,2.66
2019-03-15T20:57:10.544Z,2.27
2019-03-15T21:02:19.457Z,2.81
2019-03-15T21:07:28.428Z,2.57
2019-03-15T21:12:37.284Z,2.54
2019-03-15T21:17:46.160Z,2.35
2019-03-15T21:22:55.083Z,2.20
2019-03-15T21:28:03.910Z,2.46
2019-03-15T21:33:12.851Z,2.81
2019-03-15T21:38:21.758Z,2.61
2019-03-15T21:43:30.759Z,2.50
2019-03-15T21:48:39.616Z,2.46
2019-03-15T21:53:48.473Z,2.39
2019-03-15T21:58:57.332Z,2.67
2019-03-15T22:04:06.231Z,2.68
2019-03-15T22:09:15.131Z,2.39
2019-03-15T22:14:24.091Z,2.45
2019-03-15T22:19:33.049Z,2.64
2019-03-15T22:24:41.994Z,2.78
2019-03-15T22:29:53.703Z,2.99
2019-03-15T22:34:59.403Z,2.86
2019-03-15T22:40:08.308Z,2.61
2019-03-15T22:45:18.204Z,3.32
2019-03-15T22:50:26.965Z,5.22
2019-03-15T22:55:35.872Z,4.05
2019-03-15T23:00:44.756Z,4.30
2019-03-15T23:05:53.709Z,3.55
2019-03-15T23:11:02.600Z,3.02
2019-03-15T23:16:11.516Z,3.83
2019-03-15T23:21:20.454Z,3.69
2019-03-15T23:26:29.373Z,3.18
2019-03-15T23:31:43.501Z,3.19
2019-03-15T23:36:46.839Z,2.95
2019-03-15T23:41:55.865Z,2.93
2019-03-15T23:47:04.737Z,2.84
2019-03-15T23:52:13.676Z,3.38
2019-03-15T23:57:22.636Z,2.86
